Time;durP1;ratioP1;P1;durP2;ratioP2;P2;SDS_P1;SDS_P2;PMS_P1;PMS_P2;Temp;Humidity;BMP_temperature;BMP_pressure;BME280_temperature;BME280_humidity;BME280_pressure;Samples;Min_cycle;Max_cycle;Signal;HPM_P1;HPM_P2
2022/09/11 00:01:21;;;;;;;0.98;0.68;;;22.00;68.50;;;;;;5005708;28;20196;-70
2022/09/11 00:03:47;;;;;;;1.33;0.60;;;22.00;68.50;;;;;;5004435;28;20186;-70
2022/09/11 00:06:19;;;;;;;1.80;0.60;;;22.00;68.50;;;;;;5021932;28;20189;-70
2022/09/11 00:08:47;;;;;;;1.70;0.88;;;22.00;68.50;;;;;;5021433;28;20187;-70
2022/09/11 00:11:19;;;;;;;1.00;0.60;;;22.00;68.50;;;;;;5004907;28;20572;-70
2022/09/11 00:13:49;;;;;;;1.08;0.70;;;22.00;68.50;;;;;;5004365;28;20184;-70
2022/09/11 00:16:38;;;;;;;0.65;0.60;;;22.00;68.50;;;;;;5019063;28;20219;-70
2022/09/11 00:19:18;;;;;;;0.60;0.60;;;22.00;68.50;;;;;;5021758;28;20649;-70
2022/09/11 00:21:45;;;;;;;0.60;0.60;;;22.00;68.60;;;;;;5021729;28;20196;-70
2022/09/11 00:24:11;;;;;;;1.02;0.50;;;22.00;68.50;;;;;;5050600;28;20251;-70
2022/09/11 00:26:39;;;;;;;0.95;0.80;;;22.00;68.50;;;;;;5021649;28;20180;-70
2022/09/11 00:29:05;;;;;;;0.60;0.60;;;22.00;68.50;;;;;;5022066;28;20218;-70
2022/09/11 00:31:31;;;;;;;0.75;0.70;;;22.00;68.50;;;;;;5021523;28;20199;-70
2022/09/11 00:33:57;;;;;;;0.85;0.73;;;22.00;68.50;;;;;;5021454;28;20565;-70
2022/09/11 00:36:27;;;;;;;0.68;0.60;;;22.00;68.60;;;;;;5004985;28;20184;-70
2022/09/11 00:38:55;;;;;;;1.42;0.70;;;22.00;68.50;;;;;;5021582;28;20719;-70
2022/09/11 00:41:37;;;;;;;0.65;0.50;;;22.00;68.60;;;;;;5022032;28;20215;-70
2022/09/11 00:44:16;;;;;;;0.60;0.60;;;22.00;68.60;;;;;;5020943;28;20176;-69
2022/09/11 00:46:52;;;;;;;1.35;0.60;;;22.00;68.70;;;;;;5022202;28;20186;-70
2022/09/11 00:49:24;;;;;;;0.60;0.60;;;22.00;68.60;;;;;;5021752;28;20302;-70
2022/09/11 00:52:07;;;;;;;0.80;0.50;;;22.00;68.60;;;;;;5021540;28;20211;-70
2022/09/11 00:54:58;;;;;;;0.77;0.75;;;22.00;68.60;;;;;;5021029;28;20184;-70
2022/09/11 00:57:33;;;;;;;0.60;0.52;;;22.00;68.60;;;;;;5004326;28;20316;-70
2022/09/11 01:00:01;;;;;;;1.02;0.60;;;21.90;69.20;;;;;;5038116;28;20210;-70
2022/09/11 01:02:32;;;;;;;1.42;0.60;;;22.00;68.60;;;;;;5021179;28;20188;-70
2022/09/11 01:04:58;;;;;;;0.50;0.50;;;22.00;68.60;;;;;;5020724;28;20180;-70
2022/09/11 01:07:28;;;;;;;0.52;0.50;;;22.00;68.70;;;;;;5004971;28;20194;-70
2022/09/11 01:09:54;;;;;;;0.70;0.60;;;22.00;68.70;;;;;;5037854;28;20184;-70
2022/09/11 01:12:42;;;;;;;0.60;0.60;;;22.00;68.70;;;;;;5021105;28;20551;-70
2022/09/11 01:15:14;;;;;;;0.52;0.50;;;21.90;68.60;;;;;;5020077;28;20216;-70
2022/09/11 01:18:21;;;;;;;1.55;0.60;;;21.90;68.50;;;;;;5020795;28;20219;-70
2022/09/11 01:21:31;;;;;;;1.00;0.65;;;22.00;68.60;;;;;;5040068;28;20197;-70
2022/09/11 01:24:08;;;;;;;0.40;0.40;;;21.90;68.50;;;;;;5023539;28;20184;-70
2022/09/11 01:27:26;;;;;;;0.50;0.50;;;22.00;68.70;;;;;;5024352;28;20179;-70
2022/09/11 01:30:03;;;;;;;0.50;0.50;;;22.00;68.70;;;;;;5023953;28;20183;-70
2022/09/11 01:33:07;;;;;;;0.70;0.70;;;22.00;68.70;;;;;;5023487;28;20301;-70
2022/09/11 01:36:04;;;;;;;0.50;0.50;;;21.90;68.50;;;;;;5023161;28;20259;-70
2022/09/11 01:38:47;;;;;;;0.90;0.60;;;21.90;68.60;;;;;;5040577;28;20218;-70
2022/09/11 01:41:26;;;;;;;1.45;0.70;;;22.00;68.70;;;;;;5024274;28;20195;-70
2022/09/11 01:44:09;;;;;;;0.60;0.60;;;22.00;68.70;;;;;;5040284;28;20175;-69
2022/09/11 01:46:41;;;;;;;0.40;0.40;;;22.00;68.70;;;;;;5040673;28;20190;-70
2022/09/11 01:49:49;;;;;;;0.98;0.70;;;21.90;68.60;;;;;;5040994;28;20214;-70
2022/09/11 01:52:22;;;;;;;0.65;0.65;;;21.90;68.60;;;;;;4983549;28;20652;-70
2022/09/11 01:55:00;;;;;;;0.40;0.40;;;22.00;68.70;;;;;;5017224;28;20224;-70
2022/09/11 01:57:54;;;;;;;0.57;0.50;;;22.00;68.70;;;;;;5024018;28;20207;-70
2022/09/11 02:00:21;;;;;;;0.85;0.60;;;21.90;68.60;;;;;;5024529;28;20658;-70
2022/09/11 02:03:05;;;;;;;1.20;0.60;;;22.00;68.70;;;;;;5040629;28;20171;-70
2022/09/11 02:05:46;;;;;;;1.30;0.70;;;21.90;68.60;;;;;;5025463;28;20661;-70
2022/09/11 02:08:28;;;;;;;1.58;0.60;;;21.90;68.60;;;;;;5043859;28;20202;-70
2022/09/11 02:11:07;;;;;;;0.57;0.57;;;22.00;68.70;;;;;;5017678;28;20214;-70
2022/09/11 02:14:09;;;;;;;0.55;0.40;;;21.90;68.70;;;;;;5018509;28;20195;-69
2022/09/11 02:17:05;;;;;;;1.10;0.63;;;22.00;68.70;;;;;;5019336;28;20201;-70
2022/09/11 02:19:31;;;;;;;0.55;0.45;;;22.00;68.80;;;;;;5012939;28;20263;-70
2022/09/11 02:21:58;;;;;;;0.50;0.50;;;21.90;68.70;;;;;;5018187;28;20200;-70
2022/09/11 02:24:25;;;;;;;0.70;0.50;;;21.90;68.70;;;;;;5018112;28;20195;-70
2022/09/11 02:27:07;;;;;;;0.85;0.50;;;21.90;68.70;;;;;;5017984;28;20226;-70
2022/09/11 02:29:34;;;;;;;0.47;0.40;;;21.90;68.70;;;;;;5018070;28;20183;-70
2022/09/11 02:32:02;;;;;;;0.40;0.40;;;21.90;68.70;;;;;;5034440;28;20204;-70
2022/09/11 02:34:34;;;;;;;0.70;0.70;;;21.90;68.70;;;;;;5017099;28;20186;-70
2022/09/11 02:37:22;;;;;;;1.33;0.50;;;21.90;68.70;;;;;;5017818;28;20176;-70
2022/09/11 02:40:42;;;;;;;0.93;0.60;;;21.90;68.70;;;;;;5017378;28;20188;-70
2022/09/11 02:44:00;;;;;;;0.60;0.60;;;21.90;68.70;;;;;;4996127;28;20206;-70
2022/09/11 02:47:04;;;;;;;0.60;0.60;;;21.90;68.70;;;;;;5017960;28;20194;-70
2022/09/11 02:49:50;;;;;;;0.80;0.60;;;21.90;68.70;;;;;;4999964;28;20287;-70
2022/09/11 02:53:17;;;;;;;0.60;0.60;;;21.90;68.70;;;;;;5001572;28;20180;-70
2022/09/11 02:56:27;;;;;;;0.65;0.57;;;21.90;68.80;;;;;;5034250;28;20179;-70
2022/09/11 02:58:57;;;;;;;0.70;0.70;;;21.90;68.70;;;;;;5004289;28;20226;-70
2022/09/11 03:01:24;;;;;;;0.68;0.60;;;21.90;68.80;;;;;;5037386;28;20207;-69
2022/09/11 03:03:51;;;;;;;1.05;0.77;;;21.90;68.80;;;;;;5036922;28;20639;-69
2022/09/11 03:06:26;;;;;;;0.85;0.60;;;21.90;68.70;;;;;;5036777;28;20186;-69
2022/09/11 03:08:52;;;;;;;0.93;0.60;;;21.90;68.80;;;;;;5036414;28;20190;-69
2022/09/11 03:11:18;;;;;;;0.80;0.80;;;21.90;68.80;;;;;;5037224;28;20571;-69
2022/09/11 03:13:46;;;;;;;0.90;0.50;;;21.90;68.80;;;;;;5037502;28;20186;-70
2022/09/11 03:16:14;;;;;;;0.50;0.50;;;21.90;68.80;;;;;;5021404;28;20281;-70
2022/09/11 03:18:39;;;;;;;0.70;0.70;;;21.90;68.80;;;;;;4997876;28;1140333;-70
2022/09/11 03:21:07;;;;;;;0.70;0.70;;;21.90;68.80;;;;;;5038691;28;20203;-70
2022/09/11 03:23:32;;;;;;;0.75;0.50;;;21.90;68.80;;;;;;5021195;28;20187;-70
2022/09/11 03:25:58;;;;;;;0.60;0.60;;;21.90;68.80;;;;;;5037767;28;20183;-69
2022/09/11 03:28:24;;;;;;;0.65;0.65;;;21.90;68.80;;;;;;5038052;28;20185;-69
2022/09/11 03:30:53;;;;;;;0.55;0.50;;;21.90;68.80;;;;;;5038191;28;20196;-69
2022/09/11 03:33:24;;;;;;;0.40;0.40;;;21.90;68.80;;;;;;5038109;28;20191;-70
2022/09/11 03:35:51;;;;;;;0.55;0.55;;;21.90;68.80;;;;;;5021981;28;20183;-70
2022/09/11 03:38:18;;;;;;;0.50;0.50;;;21.90;68.80;;;;;;5022063;28;20271;-70
2022/09/11 03:40:44;;;;;;;0.75;0.75;;;21.90;68.80;;;;;;5038639;28;20195;-70
2022/09/11 03:43:15;;;;;;;0.73;0.73;;;21.90;68.80;;;;;;5021754;28;20532;-70
2022/09/11 03:45:43;;;;;;;0.75;0.75;;;21.90;68.80;;;;;;5021422;28;20175;-70
2022/09/11 03:48:09;;;;;;;0.80;0.73;;;21.90;68.80;;;;;;5021706;28;20199;-70
2022/09/11 03:50:36;;;;;;;0.60;0.45;;;21.90;68.90;;;;;;5037971;28;20684;-70
2022/09/11 03:53:01;;;;;;;1.27;0.82;;;21.90;68.90;;;;;;5037825;28;20408;-70
2022/09/11 03:55:27;;;;;;;1.15;0.80;;;21.90;68.90;;;;;;5037710;28;20187;-70
2022/09/11 03:57:53;;;;;;;0.43;0.43;;;21.90;68.90;;;;;;5020942;28;20250;-69
2022/09/11 04:00:19;;;;;;;1.15;0.52;;;21.80;68.80;;;;;;5020831;28;20290;-69
2022/09/11 04:02:48;;;;;;;0.82;0.50;;;21.90;68.90;;;;;;5038228;28;20239;-70
2022/09/11 04:05:24;;;;;;;0.63;0.63;;;21.90;68.90;;;;;;5021964;28;20171;-70
2022/09/11 04:07:52;;;;;;;0.80;0.50;;;21.90;68.90;;;;;;5021963;28;20175;-70
2022/09/11 04:10:19;;;;;;;0.93;0.80;;;21.90;69.00;;;;;;5037420;28;20580;-70
2022/09/11 04:12:47;;;;;;;0.70;0.70;;;21.80;68.90;;;;;;5021214;28;20176;-69
2022/09/11 04:15:13;;;;;;;1.83;0.73;;;21.90;69.00;;;;;;5036381;28;20191;-69
2022/09/11 04:17:40;;;;;;;1.20;0.70;;;21.80;68.90;;;;;;5037845;28;20223;-70
2022/09/11 04:20:07;;;;;;;0.65;0.65;;;21.80;68.90;;;;;;5041339;28;20211;-70
2022/09/11 04:22:33;;;;;;;0.60;0.60;;;21.90;69.00;;;;;;5040466;28;20198;-70
2022/09/11 04:24:59;;;;;;;0.70;0.70;;;21.80;68.90;;;;;;5040330;28;20194;-70
2022/09/11 04:27:26;;;;;;;0.77;0.77;;;21.90;69.00;;;;;;5040886;28;20182;-70
2022/09/11 04:29:52;;;;;;;0.90;0.60;;;21.90;69.00;;;;;;5025160;28;20871;-70
2022/09/11 04:32:18;;;;;;;0.60;0.60;;;21.80;68.90;;;;;;5041018;28;20210;-70
2022/09/11 04:34:44;;;;;;;0.70;0.70;;;21.80;68.90;;;;;;5039994;28;20227;-69
2022/09/11 04:37:10;;;;;;;0.55;0.40;;;21.80;68.90;;;;;;5024237;28;20183;-69
2022/09/11 04:39:37;;;;;;;1.00;0.77;;;21.80;68.90;;;;;;5041310;28;20270;-70
2022/09/11 04:42:03;;;;;;;0.50;0.50;;;21.80;68.90;;;;;;5024393;28;20275;-70
2022/09/11 04:44:31;;;;;;;0.70;0.70;;;21.80;68.90;;;;;;5040014;28;20187;-70
2022/09/11 04:46:58;;;;;;;1.30;0.80;;;21.90;69.00;;;;;;5040888;28;20198;-70
2022/09/11 04:49:24;;;;;;;0.68;0.65;;;21.90;69.00;;;;;;5039838;28;20210;-70
2022/09/11 04:51:50;;;;;;;0.52;0.52;;;21.80;68.90;;;;;;5039985;28;20214;-70
2022/09/11 04:54:22;;;;;;;0.50;0.50;;;21.80;68.90;;;;;;5040302;28;20171;-70
2022/09/11 04:56:49;;;;;;;0.68;0.68;;;21.90;69.00;;;;;;5023573;28;20200;-69
2022/09/11 04:59:21;;;;;;;1.45;0.82;;;21.80;68.90;;;;;;5039679;28;20231;-69
2022/09/11 05:02:09;;;;;;;0.60;0.50;;;21.80;68.90;;;;;;5039523;28;20256;-69
2022/09/11 05:04:38;;;;;;;0.60;0.60;;;21.80;68.90;;;;;;5055484;28;20246;-70
2022/09/11 05:07:04;;;;;;;0.55;0.55;;;21.90;69.00;;;;;;5039763;28;20206;-70
2022/09/11 05:09:30;;;;;;;0.70;0.60;;;21.80;68.90;;;;;;5039804;28;20198;-70
2022/09/11 05:11:57;;;;;;;0.75;0.75;;;21.80;68.90;;;;;;5022964;28;20214;-70
2022/09/11 05:14:28;;;;;;;0.82;0.70;;;21.80;68.90;;;;;;5023556;28;20180;-69
2022/09/11 05:16:54;;;;;;;0.75;0.60;;;21.80;68.90;;;;;;5040135;28;20190;-70
2022/09/11 05:19:24;;;;;;;0.80;0.80;;;21.80;68.90;;;;;;5039590;28;20272;-70
2022/09/11 05:21:50;;;;;;;0.50;0.50;;;21.80;68.90;;;;;;5023696;28;20201;-70
2022/09/11 05:24:16;;;;;;;0.82;0.80;;;21.80;68.90;;;;;;5038807;28;20183;-70
2022/09/11 05:26:42;;;;;;;0.50;0.50;;;21.80;68.90;;;;;;5026745;28;20188;-70
2022/09/11 05:29:14;;;;;;;0.50;0.50;;;21.90;69.00;;;;;;5036935;28;20194;-70
2022/09/11 05:31:46;;;;;;;0.60;0.60;;;21.80;68.90;;;;;;5004145;28;20270;-70
2022/09/11 05:34:15;;;;;;;1.17;0.70;;;21.80;68.90;;;;;;5004309;28;20218;-70
2022/09/11 05:36:40;;;;;;;0.60;0.60;;;21.80;68.90;;;;;;5020365;28;20553;-69
2022/09/11 05:39:08;;;;;;;1.00;0.68;;;21.80;68.90;;;;;;5020530;28;20200;-69
2022/09/11 05:41:34;;;;;;;0.50;0.50;;;21.90;69.00;;;;;;5036617;28;20196;-69
2022/09/11 05:44:00;;;;;;;0.70;0.70;;;21.80;68.90;;;;;;5036309;28;20176;-70
2022/09/11 05:46:26;;;;;;;0.70;0.70;;;21.80;68.90;;;;;;5036544;28;20188;-70
2022/09/11 05:48:57;;;;;;;0.63;0.63;;;21.80;68.90;;;;;;5019866;28;20180;-70
2022/09/11 05:51:23;;;;;;;0.70;0.70;;;21.80;68.90;;;;;;5020025;28;20280;-70
2022/09/11 05:53:54;;;;;;;0.60;0.60;;;21.80;68.90;;;;;;5036108;28;20220;-70
2022/09/11 05:56:24;;;;;;;1.02;0.70;;;21.80;68.90;;;;;;5003825;28;20264;-70
2022/09/11 05:58:53;;;;;;;0.85;0.63;;;21.80;68.90;;;;;;5003921;28;20200;-70
2022/09/11 06:01:26;;;;;;;0.52;0.52;;;21.80;68.90;;;;;;5003953;28;20208;-70
2022/09/11 06:04:08;;;;;;;0.43;0.43;;;21.80;68.90;;;;;;5004559;28;20183;-70
2022/09/11 06:06:34;;;;;;;0.73;0.70;;;21.80;68.90;;;;;;5003585;28;20176;-70
2022/09/11 06:09:01;;;;;;;0.65;0.65;;;21.80;69.00;;;;;;5051642;28;20175;-70
2022/09/11 06:11:28;;;;;;;1.20;0.80;;;21.80;69.00;;;;;;5054076;28;20210;-70
2022/09/11 06:13:54;;;;;;;0.80;0.80;;;21.80;69.00;;;;;;5020530;28;20198;-70
2022/09/11 06:16:22;;;;;;;0.50;0.50;;;21.80;69.00;;;;;;5038845;28;20206;-70
2022/09/11 06:18:51;;;;;;;0.95;0.77;;;21.80;68.90;;;;;;5055444;28;20234;-70
2022/09/11 06:21:26;;;;;;;0.73;0.73;;;21.80;68.90;;;;;;5019576;28;20199;-70
2022/09/11 06:23:59;;;;;;;0.50;0.50;;;21.80;68.90;;;;;;5021427;28;20266;-70
2022/09/11 06:26:28;;;;;;;0.70;0.70;;;21.80;68.90;;;;;;5036906;28;20183;-71
2022/09/11 06:28:54;;;;;;;0.63;0.63;;;21.80;69.00;;;;;;5020960;28;20225;-70
2022/09/11 06:31:25;;;;;;;0.73;0.73;;;21.80;68.90;;;;;;5020328;28;20198;-71
2022/09/11 06:33:53;;;;;;;1.00;0.90;;;21.80;69.00;;;;;;5028677;28;20187;-70
2022/09/11 06:36:25;;;;;;;0.82;0.82;;;21.80;68.90;;;;;;5038758;28;20183;-70
2022/09/11 06:38:56;;;;;;;0.60;0.60;;;21.80;68.90;;;;;;5038602;28;20203;-70
2022/09/11 06:41:26;;;;;;;1.27;0.68;;;21.80;69.00;;;;;;5054350;28;20248;-70
2022/09/11 06:43:56;;;;;;;0.70;0.70;;;21.90;69.00;;;;;;5021233;28;20178;-70
2022/09/11 06:46:24;;;;;;;0.90;0.90;;;21.80;68.90;;;;;;5020753;28;20202;-70
2022/09/11 06:48:55;;;;;;;0.85;0.80;;;21.80;68.90;;;;;;5037743;28;20282;-70
2022/09/11 06:51:24;;;;;;;0.68;0.68;;;21.80;69.00;;;;;;5038030;28;20670;-70
2022/09/11 06:53:57;;;;;;;1.05;0.90;;;21.80;69.00;;;;;;5036795;28;20205;-69
2022/09/11 06:56:25;;;;;;;0.85;0.85;;;21.80;69.00;;;;;;5037709;28;20197;-70
2022/09/11 06:58:52;;;;;;;0.82;0.80;;;21.80;69.00;;;;;;5039052;28;20592;-71
2022/09/11 07:01:22;;;;;;;0.80;0.80;;;21.80;69.10;;;;;;5039353;28;20203;-70
2022/09/11 07:03:55;;;;;;;0.85;0.85;;;21.80;69.10;;;;;;5037178;28;20577;-70
2022/09/11 07:06:25;;;;;;;0.70;0.70;;;21.80;69.10;;;;;;5038058;28;20229;-70
2022/09/11 07:09:01;;;;;;;0.90;0.90;;;21.80;69.10;;;;;;5037989;28;20188;-71
2022/09/11 07:11:35;;;;;;;1.77;1.23;;;21.80;69.20;;;;;;5021261;28;20218;-70
2022/09/11 07:14:05;;;;;;;0.90;0.90;;;21.80;69.20;;;;;;5035960;28;20179;-70
2022/09/11 07:16:34;;;;;;;0.90;0.80;;;21.80;69.20;;;;;;5021050;28;20214;-71
2022/09/11 07:19:04;;;;;;;1.00;1.00;;;21.80;69.20;;;;;;5020791;28;20228;-70
2022/09/11 07:21:33;;;;;;;1.10;1.00;;;21.80;69.20;;;;;;5019769;28;20226;-70
2022/09/11 07:24:02;;;;;;;1.08;1.00;;;21.80;69.20;;;;;;5034612;28;20179;-70
2022/09/11 07:26:35;;;;;;;0.80;0.80;;;21.80;69.20;;;;;;5036213;28;20179;-70
2022/09/11 07:29:04;;;;;;;1.15;1.05;;;21.80;69.20;;;;;;5020074;28;20179;-71
2022/09/11 07:31:33;;;;;;;1.10;1.00;;;21.90;69.30;;;;;;5022793;28;20206;-71
2022/09/11 07:34:01;;;;;;;0.68;0.68;;;21.90;69.30;;;;;;5016193;28;20255;-71
2022/09/11 07:36:32;;;;;;;1.17;1.13;;;21.90;69.30;;;;;;5031922;28;20183;-70
2022/09/11 07:39:00;;;;;;;1.27;1.17;;;21.90;69.30;;;;;;5018683;28;20210;-71
2022/09/11 07:41:34;;;;;;;0.98;0.95;;;21.80;69.40;;;;;;5020524;28;20199;-71
2022/09/11 07:44:05;;;;;;;0.90;0.90;;;21.80;69.20;;;;;;5018760;28;20180;-70
2022/09/11 07:46:31;;;;;;;1.20;1.20;;;21.80;69.20;;;;;;5003048;28;20202;-70
2022/09/11 07:49:01;;;;;;;1.30;1.20;;;21.90;69.30;;;;;;5002863;28;20192;-71
2022/09/11 07:51:28;;;;;;;1.20;1.10;;;21.90;69.30;;;;;;5019194;28;20211;-71
2022/09/11 07:53:58;;;;;;;1.38;1.27;;;21.80;69.30;;;;;;5020639;28;20198;-70
2022/09/11 07:56:25;;;;;;;1.02;1.02;;;21.80;69.30;;;;;;5023414;28;20252;-70
2022/09/11 07:58:54;;;;;;;0.95;0.95;;;21.90;69.40;;;;;;5023004;28;20212;-70
2022/09/11 08:01:24;;;;;;;1.10;1.10;;;21.80;69.30;;;;;;5038832;28;20203;-70
2022/09/11 08:04:08;;;;;;;1.33;1.20;;;21.80;69.40;;;;;;5022188;28;20263;-70
2022/09/11 08:06:37;;;;;;;1.08;1.00;;;21.90;69.40;;;;;;5022159;28;20176;-71
2022/09/11 08:09:13;;;;;;;1.13;1.10;;;21.90;69.50;;;;;;5022332;28;20199;-71
2022/09/11 08:11:47;;;;;;;1.00;1.00;;;21.90;69.50;;;;;;5022704;28;20203;-71
2022/09/11 08:14:16;;;;;;;1.50;1.40;;;21.90;69.50;;;;;;5022296;28;20243;-71
2022/09/11 08:16:43;;;;;;;1.30;1.20;;;21.90;69.40;;;;;;5029475;28;20191;-71
2022/09/11 08:19:18;;;;;;;1.77;1.30;;;21.90;69.60;;;;;;5027295;28;20302;-70
2022/09/11 08:21:46;;;;;;;1.40;1.30;;;21.90;69.50;;;;;;5025947;28;20214;-70
2022/09/11 08:24:15;;;;;;;1.55;1.30;;;21.90;69.50;;;;;;5024773;28;20191;-70
2022/09/11 08:26:43;;;;;;;1.10;1.10;;;21.90;69.40;;;;;;5025344;28;20209;-71
2022/09/11 08:29:09;;;;;;;1.33;1.10;;;21.90;69.50;;;;;;5008355;28;20219;-71
2022/09/11 08:31:35;;;;;;;1.70;1.30;;;21.90;69.40;;;;;;5021758;28;20299;-71
2022/09/11 08:34:02;;;;;;;1.30;1.30;;;21.90;69.30;;;;;;5020858;28;20191;-71
2022/09/11 08:36:28;;;;;;;1.63;1.23;;;22.00;69.40;;;;;;5037642;28;20199;-71
2022/09/11 08:38:59;;;;;;;1.65;1.55;;;21.90;69.40;;;;;;5038007;28;20211;-71
2022/09/11 08:41:48;;;;;;;1.38;1.15;;;22.00;69.40;;;;;;5037765;28;20199;-71
2022/09/11 08:44:23;;;;;;;1.25;1.10;;;22.00;69.80;;;;;;5005509;28;20239;-70
2022/09/11 08:47:01;;;;;;;1.67;1.58;;;21.90;69.30;;;;;;5022524;28;20507;-70
2022/09/11 08:49:42;;;;;;;2.97;1.60;;;22.00;69.40;;;;;;5005577;28;20231;-71
2022/09/11 08:52:12;;;;;;;1.20;1.20;;;21.90;69.40;;;;;;5021649;28;20184;-71
2022/09/11 08:54:41;;;;;;;1.20;1.20;;;22.00;69.50;;;;;;5005037;28;20592;-70
2022/09/11 08:57:45;;;;;;;1.42;1.30;;;22.00;69.60;;;;;;5022123;28;20172;-70
2022/09/11 09:00:26;;;;;;;1.42;1.33;;;22.00;69.50;;;;;;5021600;28;20220;-71
2022/09/11 09:03:23;;;;;;;1.63;1.25;;;22.00;69.70;;;;;;5005944;28;20203;-71
2022/09/11 09:06:07;;;;;;;1.60;1.50;;;22.00;69.60;;;;;;5020665;28;20188;-71
2022/09/11 09:08:57;;;;;;;1.30;1.20;;;22.00;69.60;;;;;;5021763;28;20176;-71
2022/09/11 09:11:41;;;;;;;1.40;1.30;;;22.00;69.70;;;;;;5021019;28;20239;-71
2022/09/11 09:14:34;;;;;;;1.50;1.40;;;22.10;69.60;;;;;;5021146;28;20188;-71
2022/09/11 09:17:51;;;;;;;1.20;1.20;;;22.00;70.00;;;;;;5037910;28;20180;-71
2022/09/11 09:20:24;;;;;;;1.50;1.40;;;22.10;69.90;;;;;;5020864;28;20223;-71
2022/09/11 09:23:01;;;;;;;1.92;1.42;;;22.00;69.60;;;;;;5037657;28;20223;-70
2022/09/11 09:25:34;;;;;;;1.20;1.20;;;22.00;69.60;;;;;;5004555;28;20203;-71
2022/09/11 09:28:28;;;;;;;1.73;1.50;;;22.00;69.60;;;;;;5005053;28;20195;-70
2022/09/11 09:31:06;;;;;;;1.17;1.08;;;22.00;69.80;;;;;;5037422;28;20211;-71
2022/09/11 09:33:47;;;;;;;1.55;1.15;;;22.00;69.90;;;;;;5004759;28;20179;-71
2022/09/11 09:36:30;;;;;;;1.88;1.42;;;22.00;69.80;;;;;;5004214;28;20197;-71
2022/09/11 09:38:58;;;;;;;1.35;1.25;;;22.00;69.70;;;;;;5021260;28;20226;-71
2022/09/11 09:41:48;;;;;;;1.50;1.40;;;22.00;70.40;;;;;;5005033;28;20216;-71
2022/09/11 09:44:45;;;;;;;1.75;1.20;;;22.00;69.60;;;;;;5020566;28;20271;-71
2022/09/11 09:47:13;;;;;;;1.40;1.30;;;22.10;70.00;;;;;;5021403;28;20184;-71
2022/09/11 09:49:42;;;;;;;1.38;1.27;;;22.10;70.00;;;;;;5021602;28;20199;-71
2022/09/11 09:52:30;;;;;;;1.40;1.30;;;22.00;70.00;;;;;;5037720;28;20184;-71
2022/09/11 09:55:03;;;;;;;1.05;1.05;;;22.10;70.30;;;;;;5003579;28;20187;-70
2022/09/11 09:57:38;;;;;;;2.10;1.50;;;22.10;70.00;;;;;;5004501;28;20192;-71
2022/09/11 10:00:09;;;;;;;1.70;1.50;;;22.10;69.80;;;;;;5004575;28;20294;-71
2022/09/11 10:02:55;;;;;;;1.40;1.30;;;22.10;69.80;;;;;;5021842;28;20204;-70
2022/09/11 10:05:33;;;;;;;2.08;1.25;;;22.10;69.80;;;;;;5004404;28;20188;-70
2022/09/11 10:08:05;;;;;;;1.92;1.40;;;22.10;69.80;;;;;;5036991;28;20698;-71
2022/09/11 10:10:36;;;;;;;1.60;1.50;;;22.10;69.80;;;;;;5004680;28;20208;-71
2022/09/11 10:13:13;;;;;;;1.55;1.45;;;22.10;69.70;;;;;;5005178;28;20222;-71
2022/09/11 10:15:39;;;;;;;1.45;1.35;;;22.10;69.80;;;;;;5003891;28;20218;-70
2022/09/11 10:18:41;;;;;;;1.70;1.60;;;22.10;69.70;;;;;;5021411;28;20242;-70
2022/09/11 10:21:32;;;;;;;1.42;1.33;;;22.10;69.70;;;;;;5023662;28;20225;-71
2022/09/11 10:24:25;;;;;;;2.25;1.20;;;22.10;69.80;;;;;;5042248;28;20188;-71
2022/09/11 10:26:54;;;;;;;1.25;1.15;;;22.10;69.70;;;;;;5025500;28;20636;-70
2022/09/11 10:29:25;;;;;;;1.77;1.30;;;22.10;69.90;;;;;;5019363;28;20231;-71
2022/09/11 10:31:54;;;;;;;1.23;1.23;;;22.10;69.80;;;;;;5036125;28;20211;-70
2022/09/11 10:34:25;;;;;;;1.20;1.20;;;22.10;70.00;;;;;;5002322;28;20184;-70
2022/09/11 10:37:01;;;;;;;1.50;1.40;;;22.10;69.90;;;;;;5002780;28;20184;-71
2022/09/11 10:39:31;;;;;;;1.83;1.73;;;22.10;70.00;;;;;;5036126;28;20215;-71
2022/09/11 10:42:06;;;;;;;1.45;1.35;;;22.10;69.70;;;;;;5003545;28;20212;-71
2022/09/11 10:44:32;;;;;;;1.40;1.30;;;22.10;69.90;;;;;;5018897;28;20544;-71
2022/09/11 10:47:23;;;;;;;1.60;1.50;;;22.10;69.90;;;;;;5019173;28;20188;-71
2022/09/11 10:50:17;;;;;;;1.50;1.38;;;22.10;69.80;;;;;;5003075;28;20188;-71
2022/09/11 10:53:16;;;;;;;1.40;1.30;;;22.10;69.70;;;;;;5019934;28;20199;-71
2022/09/11 10:55:55;;;;;;;1.50;1.40;;;22.10;69.70;;;;;;5018496;28;20176;-70
2022/09/11 10:58:33;;;;;;;1.58;1.40;;;22.10;70.00;;;;;;5018769;28;20227;-70
2022/09/11 11:00:59;;;;;;;1.73;1.63;;;22.10;69.90;;;;;;5002884;28;20276;-70
2022/09/11 11:03:27;;;;;;;1.40;1.30;;;22.10;69.80;;;;;;5003291;28;20207;-71
2022/09/11 11:06:41;;;;;;;1.60;1.50;;;22.10;69.90;;;;;;5018351;28;20188;-71
2022/09/11 11:09:53;;;;;;;1.40;1.30;;;22.10;69.90;;;;;;5002747;28;20206;-70
2022/09/11 11:12:30;;;;;;;1.83;1.73;;;22.20;70.10;;;;;;5035752;28;20192;-71
2022/09/11 11:15:19;;;;;;;1.40;1.30;;;22.10;69.90;;;;;;5002074;28;20188;-70
2022/09/11 11:18:02;;;;;;;1.60;1.50;;;22.10;70.00;;;;;;5002484;28;20188;-71
2022/09/11 11:20:50;;;;;;;1.60;1.50;;;22.10;69.90;;;;;;5035005;28;20259;-71
2022/09/11 11:23:51;;;;;;;1.60;1.50;;;22.10;70.00;;;;;;5006804;28;20176;-71
2022/09/11 11:26:22;;;;;;;1.52;1.40;;;22.10;70.00;;;;;;5002445;28;20180;-70
2022/09/11 11:29:18;;;;;;;1.60;1.50;;;22.20;70.00;;;;;;5003767;28;20200;-71
2022/09/11 11:32:29;;;;;;;1.30;1.30;;;22.10;69.90;;;;;;5005856;28;20220;-70
2022/09/11 11:35:36;;;;;;;1.70;1.60;;;22.20;69.90;;;;;;5021862;28;20196;-71
2022/09/11 11:38:23;;;;;;;1.73;1.63;;;22.10;69.80;;;;;;5038449;28;20253;-71
2022/09/11 11:41:03;;;;;;;1.30;1.20;;;22.10;69.70;;;;;;5039222;28;20204;-71
2022/09/11 11:43:38;;;;;;;1.38;1.27;;;22.10;69.50;;;;;;5040369;28;20206;-71
2022/09/11 11:46:38;;;;;;;1.30;1.30;;;22.10;69.60;;;;;;5022212;28;20180;-71
2022/09/11 11:49:23;;;;;;;2.38;1.48;;;22.10;69.90;;;;;;5006245;28;20200;-71
2022/09/11 11:52:02;;;;;;;1.60;1.50;;;22.10;69.80;;;;;;5039584;28;20212;-71
2022/09/11 11:54:57;;;;;;;1.20;1.20;;;22.10;69.70;;;;;;5022384;28;20219;-70
2022/09/11 11:57:34;;;;;;;1.67;1.58;;;22.10;69.80;;;;;;5038582;28;20203;-71
2022/09/11 12:00:13;;;;;;;1.42;1.33;;;22.10;70.10;;;;;;5039752;28;20202;-71
2022/09/11 12:02:55;;;;;;;1.50;1.40;;;22.20;70.00;;;;;;5039119;28;20180;-71
2022/09/11 12:05:29;;;;;;;1.65;1.55;;;22.10;69.90;;;;;;5038339;28;20227;-70
2022/09/11 12:07:56;;;;;;;5.18;1.40;;;22.10;70.20;;;;;;5022315;28;20186;-70
2022/09/11 12:10:37;;;;;;;1.95;1.80;;;22.10;70.00;;;;;;5039404;28;20260;-70
2022/09/11 12:13:17;;;;;;;1.42;1.33;;;22.20;70.00;;;;;;5005848;28;20206;-70
2022/09/11 12:16:30;;;;;;;1.60;1.50;;;22.20;69.80;;;;;;5038994;28;20199;-70
2022/09/11 12:19:11;;;;;;;1.42;1.35;;;22.20;69.80;;;;;;5021861;28;20215;-71
2022/09/11 12:21:52;;;;;;;1.52;1.42;;;22.20;70.10;;;;;;5005779;28;20204;-71
2022/09/11 12:24:21;;;;;;;1.60;1.50;;;22.20;70.00;;;;;;5004141;28;20188;-70
2022/09/11 12:27:30;;;;;;;1.80;1.70;;;22.20;69.90;;;;;;5005902;28;20180;-70
2022/09/11 12:30:15;;;;;;;2.28;1.73;;;22.20;69.80;;;;;;5006539;28;20184;-71
2022/09/11 12:32:47;;;;;;;1.80;1.70;;;22.20;69.70;;;;;;5005367;28;20188;-71
2022/09/11 12:35:27;;;;;;;1.70;1.60;;;22.20;69.70;;;;;;5005365;28;20177;-71
2022/09/11 12:38:16;;;;;;;1.77;1.55;;;22.20;70.00;;;;;;5005495;28;20239;-70
2022/09/11 12:41:06;;;;;;;2.20;2.00;;;22.20;70.00;;;;;;5005753;28;20208;-70
2022/09/11 12:43:34;;;;;;;1.73;1.63;;;22.20;70.00;;;;;;5006048;28;20223;-71
2022/09/11 12:46:21;;;;;;;1.77;1.67;;;22.20;69.90;;;;;;5021834;28;20198;-70
2022/09/11 12:49:04;;;;;;;1.60;1.50;;;22.20;69.90;;;;;;5005969;28;20194;-71
2022/09/11 12:51:49;;;;;;;1.58;1.48;;;22.20;69.80;;;;;;5005793;28;20242;-71
2022/09/11 12:54:45;;;;;;;1.80;1.70;;;22.20;70.00;;;;;;5005023;28;20291;-71
2022/09/11 12:57:25;;;;;;;1.75;1.50;;;22.20;69.90;;;;;;5002193;28;20200;-71
2022/09/11 12:59:58;;;;;;;2.00;1.50;;;22.20;69.90;;;;;;5005164;28;20211;-71
2022/09/11 13:02:42;;;;;;;1.80;1.70;;;22.20;70.00;;;;;;5005781;28;20230;-71
2022/09/11 13:05:33;;;;;;;1.70;1.60;;;22.20;69.70;;;;;;5004762;28;20210;-70
2022/09/11 13:08:14;;;;;;;1.80;1.70;;;22.20;70.00;;;;;;5006172;28;20207;-70
2022/09/11 13:10:40;;;;;;;1.73;1.63;;;22.20;70.20;;;;;;5005167;28;20274;-71
2022/09/11 13:13:36;;;;;;;1.58;1.48;;;22.20;70.00;;;;;;5006121;28;20187;-70
2022/09/11 13:16:24;;;;;;;1.77;1.45;;;22.20;70.00;;;;;;5004489;28;20192;-71
2022/09/11 13:18:58;;;;;;;1.80;1.70;;;22.10;70.00;;;;;;5005126;28;20216;-71
2022/09/11 13:21:24;;;;;;;1.80;1.70;;;22.20;70.00;;;;;;5005372;28;20208;-71
2022/09/11 13:23:51;;;;;;;1.92;1.83;;;22.10;69.90;;;;;;5004305;28;20204;-71
2022/09/11 13:26:31;;;;;;;1.55;1.45;;;22.20;69.90;;;;;;5004374;28;20184;-71
2022/09/11 13:28:59;;;;;;;1.80;1.70;;;22.10;70.20;;;;;;5005326;28;20208;-70
2022/09/11 13:31:34;;;;;;;1.85;1.75;;;22.20;70.10;;;;;;5005152;28;20219;-71
2022/09/11 13:34:06;;;;;;;1.80;1.70;;;22.10;70.00;;;;;;5004198;28;20184;-70